Furqlus, Syria
Current Conditions -  °F | °C
As of 3:00 PM on Monday 20 Oct 2014 (Local Time) from OSDI Reporting Station
Scattered Clouds Scattered Clouds  
Wind Chill: 70°   Ceiling: Unl
Heat Index: 70°   Visibility: 6mi
Dew Point: 34°   Wind: 14mph
Humidity: 27%   Direction: 260°W
Pressure: 29.83"   Gusts: NA
Location:  34.6°N, 37.08°E
Report Text: OSDI 201200Z 26012KT 9999 SCT030 21/01 Q1010
Loading
Personal Weather Stations






























Interactive Weather Map New forecast layout! Learn more

10-Day Weather Forecast

Advertisements
Track Severe Weather on mobile